Time,TemperatureF,DewpointF,PressureIn,WindDirection,WindDirectionDegrees,WindSpeedMPH,WindSpeedGustMPH,Humidity,HourlyPrecipIn,Conditions,Clouds,dailyrainin,SoftwareType,DateUTC
2013-03-15 00:02:00,52.9,35.0,30.14,South,190,0.0,1.0,52,0.00,,,0.00,weatherlink.com 1.10,2013-03-15 07:02:00,
2013-03-15 00:17:00,52.3,36.0,30.14,ESE,120,0.0,0.0,55,0.00,,,0.00,weatherlink.com 1.10,2013-03-15 07:17:00,
2013-03-15 00:32:00,52.4,36.0,30.14,SE,136,0.0,0.0,54,0.00,,,0.00,weatherlink.com 1.10,2013-03-15 07:32:00,
2013-03-15 00:47:00,52.3,36.0,30.14,SSW,197,0.0,1.0,55,0.00,,,0.00,weatherlink.com 1.10,2013-03-15 07:47:00,
2013-03-15 01:02:00,52.1,37.0,30.14,SSW,203,0.0,1.0,56,0.00,,,0.00,weatherlink.com 1.10,2013-03-15 08:02:00,
2013-03-15 01:17:00,51.6,37.0,30.14,SW,214,1.0,1.0,59,0.00,,,0.00,weatherlink.com 1.10,2013-03-15 08:17:00,
2013-03-15 01:32:00,51.4,38.0,30.14,SSW,212,0.0,1.0,61,0.00,,,0.00,weatherlink.com 1.10,2013-03-15 08:32:00,
2013-03-15 01:47:00,51.4,38.0,30.13,WSW,248,0.0,1.0,61,0.00,,,0.00,weatherlink.com 1.10,2013-03-15 08:47:00,
2013-03-15 02:02:00,51.2,38.0,30.14,SSW,208,0.0,1.0,62,0.00,,,0.00,weatherlink.com 1.10,2013-03-15 09:02:00,
2013-03-15 02:17:00,51.0,39.0,30.14,SE,129,0.0,2.0,64,0.00,,,0.00,weatherlink.com 1.10,2013-03-15 09:17:00,
2013-03-15 02:32:00,50.6,39.0,30.14,SE,134,0.0,1.0,65,0.00,,,0.00,weatherlink.com 1.10,2013-03-15 09:32:00,
2013-03-15 02:47:00,49.8,39.0,30.14,SE,134,0.0,0.0,66,0.00,,,0.00,weatherlink.com 1.10,2013-03-15 09:47:00,
2013-03-15 03:02:00,49.8,39.0,30.13,SW,221,0.0,1.0,66,0.00,,,0.00,weatherlink.com 1.10,2013-03-15 10:02:00,
2013-03-15 03:17:00,49.8,39.0,30.14,SE,127,0.0,2.0,66,0.00,,,0.00,weatherlink.com 1.10,2013-03-15 10:17:00,
2013-03-15 03:32:00,50.2,40.0,30.14,SE,139,0.0,2.0,67,0.00,,,0.00,weatherlink.com 1.10,2013-03-15 10:32:00,
2013-03-15 03:47:00,50.5,40.0,30.13,SSE,155,0.0,2.0,67,0.00,,,0.00,weatherlink.com 1.10,2013-03-15 10:47:00,
2013-03-15 04:02:00,50.8,40.0,30.13,SSE,165,0.0,3.0,66,0.00,,,0.00,weatherlink.com 1.10,2013-03-15 11:02:00,
2013-03-15 04:17:00,50.4,40.0,30.12,South,179,0.0,1.0,68,0.00,,,0.00,weatherlink.com 1.10,2013-03-15 11:17:00,
2013-03-15 04:33:00,49.9,40.0,30.13,South,188,0.0,1.0,69,0.00,,,0.00,weatherlink.com 1.10,2013-03-15 11:33:00,
2013-03-15 04:48:00,49.9,39.0,30.12,SSE,155,1.0,2.0,67,0.00,,,0.00,weatherlink.com 1.10,2013-03-15 11:48:00,
2013-03-15 05:03:00,49.9,40.0,30.11,SE,139,1.0,2.0,69,0.00,,,0.00,weatherlink.com 1.10,2013-03-15 12:03:00,
2013-03-15 05:18:00,50.3,40.0,30.11,SSW,195,1.0,1.0,67,0.00,,,0.00,weatherlink.com 1.10,2013-03-15 12:18:00,
2013-03-15 05:33:00,50.9,40.0,30.12,SE,141,1.0,4.0,66,0.00,,,0.00,weatherlink.com 1.10,2013-03-15 12:33:00,
2013-03-15 05:48:00,51.3,40.0,30.12,ESE,122,0.0,2.0,66,0.00,,,0.00,weatherlink.com 1.10,2013-03-15 12:48:00,
2013-03-15 06:03:00,51.0,40.0,30.12,SSE,147,2.0,2.0,67,0.00,,,0.00,weatherlink.com 1.10,2013-03-15 13:03:00,
2013-03-15 06:18:00,50.6,40.0,30.12,South,170,1.0,2.0,68,0.00,,,0.00,weatherlink.com 1.10,2013-03-15 13:18:00,
2013-03-15 06:33:00,50.8,40.0,30.12,SE,132,1.0,1.0,66,0.00,,,0.00,weatherlink.com 1.10,2013-03-15 13:33:00,
2013-03-15 07:03:00,51.4,39.0,30.12,SW,217,0.0,1.0,64,0.00,,,0.00,weatherlink.com 1.10,2013-03-15 14:03:00,
2013-03-15 07:18:00,51.7,40.0,30.12,South,190,1.0,3.0,64,0.00,,,0.00,weatherlink.com 1.10,2013-03-15 14:18:00,
2013-03-15 07:33:00,51.6,40.0,30.13,SSE,152,0.0,1.0,64,0.00,,,0.00,weatherlink.com 1.10,2013-03-15 14:33:00,
2013-03-15 07:48:00,52.0,39.0,30.13,SSW,192,0.0,1.0,62,0.00,,,0.00,weatherlink.com 1.10,2013-03-15 14:48:00,
2013-03-15 08:03:00,52.2,39.0,30.12,WSW,243,1.0,2.0,62,0.00,,,0.00,weatherlink.com 1.10,2013-03-15 15:03:00,
2013-03-15 08:18:00,52.1,41.0,30.13,West,271,0.0,2.0,65,0.00,,,0.00,weatherlink.com 1.10,2013-03-15 15:18:00,
2013-03-15 08:33:00,52.1,41.0,30.13,SSW,195,0.0,3.0,66,0.00,,,0.00,weatherlink.com 1.10,2013-03-15 15:33:00,
2013-03-15 08:48:00,52.7,41.0,30.13,SSW,210,0.0,1.0,64,0.00,,,0.00,weatherlink.com 1.10,2013-03-15 15:48:00,
2013-03-15 09:03:00,54.3,40.0,30.13,SE,125,4.0,4.0,60,0.00,,,0.00,weatherlink.com 1.10,2013-03-15 16:03:00,
2013-03-15 09:18:00,55.3,41.0,30.14,South,181,1.0,2.0,59,0.00,,,0.00,weatherlink.com 1.10,2013-03-15 16:18:00,
2013-03-15 09:33:00,56.4,42.0,30.14,SSW,208,1.0,3.0,58,0.00,,,0.00,weatherlink.com 1.10,2013-03-15 16:33:00,
2013-03-15 09:48:00,57.4,41.0,30.14,North,5,2.0,4.0,55,0.00,,,0.00,weatherlink.com 1.10,2013-03-15 16:48:00,
2013-03-15 10:03:00,58.1,42.0,30.14,North,6,1.0,4.0,55,0.00,,,0.00,weatherlink.com 1.10,2013-03-15 17:03:00,
2013-03-15 10:18:00,59.8,41.0,30.14,North,352,1.0,3.0,51,0.00,,,0.00,weatherlink.com 1.10,2013-03-15 17:18:00,
2013-03-15 10:33:00,60.5,41.0,30.15,East,94,0.0,4.0,49,0.00,,,0.00,weatherlink.com 1.10,2013-03-15 17:33:00,
2013-03-15 10:48:00,61.5,41.0,30.15,NNE,33,0.0,3.0,48,0.00,,,0.00,weatherlink.com 1.10,2013-03-15 17:48:00,
2013-03-15 11:03:00,62.7,41.0,30.14,WNW,300,0.0,3.0,46,0.00,,,0.00,weatherlink.com 1.10,2013-03-15 18:03:00,
2013-03-15 11:18:00,64.4,42.0,30.14,East,81,2.0,3.0,45,0.00,,,0.00,weatherlink.com 1.10,2013-03-15 18:18:00,
2013-03-15 11:34:00,65.6,44.0,30.14,NW,316,1.0,5.0,45,0.00,,,0.00,weatherlink.com 1.10,2013-03-15 18:34:00,
2013-03-15 11:48:00,66.6,43.0,30.14,ESE,108,1.0,3.0,43,0.00,,,0.00,weatherlink.com 1.10,2013-03-15 18:48:00,
2013-03-15 12:04:00,66.9,40.0,30.13,North,4,1.0,5.0,38,0.00,,,0.00,weatherlink.com 1.10,2013-03-15 19:04:00,
2013-03-15 12:19:00,67.9,43.0,30.13,NE,37,2.0,4.0,41,0.00,,,0.00,weatherlink.com 1.10,2013-03-15 19:19:00,
2013-03-15 12:34:00,69.3,43.0,30.12,NW,321,0.0,5.0,39,0.00,,,0.00,weatherlink.com 1.10,2013-03-15 19:34:00,
2013-03-15 12:49:00,71.0,43.0,30.12,North,6,3.0,6.0,37,0.00,,,0.00,weatherlink.com 1.10,2013-03-15 19:49:00,
2013-03-15 13:04:00,71.7,44.0,30.11,NNE,27,3.0,5.0,37,0.00,,,0.00,weatherlink.com 1.10,2013-03-15 20:04:00,
2013-03-15 13:19:00,72.7,43.0,30.11,North,8,2.0,7.0,35,0.00,,,0.00,weatherlink.com 1.10,2013-03-15 20:19:00,
2013-03-15 13:34:00,72.4,43.0,30.11,NNW,345,1.0,6.0,35,0.00,,,0.00,weatherlink.com 1.10,2013-03-15 20:34:00,
2013-03-15 13:49:00,73.0,43.0,30.10,NNE,33,5.0,7.0,34,0.00,,,0.00,weatherlink.com 1.10,2013-03-15 20:49:00,
2013-03-15 14:04:00,73.8,43.0,30.09,ESE,105,2.0,6.0,33,0.00,,,0.00,weatherlink.com 1.10,2013-03-15 21:04:00,
2013-03-15 14:19:00,73.7,44.0,30.09,NNW,343,3.0,6.0,35,0.00,,,0.00,weatherlink.com 1.10,2013-03-15 21:19:00,
2013-03-15 14:34:00,73.8,43.0,30.09,NE,46,0.0,9.0,33,0.00,,,0.00,weatherlink.com 1.10,2013-03-15 21:34:00,
2013-03-15 14:49:00,74.8,43.0,30.09,NNW,333,1.0,5.0,32,0.00,,,0.00,weatherlink.com 1.10,2013-03-15 21:49:00,
2013-03-15 15:04:00,74.5,44.0,30.09,NNE,30,1.0,6.0,34,0.00,,,0.00,weatherlink.com 1.10,2013-03-15 22:04:00,
2013-03-15 15:19:00,74.0,45.0,30.09,SE,130,1.0,6.0,35,0.00,,,0.00,weatherlink.com 1.10,2013-03-15 22:19:00,
2013-03-15 15:34:00,74.6,45.0,30.09,NNE,25,1.0,6.0,35,0.00,,,0.00,weatherlink.com 1.10,2013-03-15 22:34:00,
2013-03-15 15:49:00,73.8,44.0,30.08,North,356,1.0,5.0,34,0.00,,,0.00,weatherlink.com 1.10,2013-03-15 22:49:00,
2013-03-15 16:04:00,73.6,43.0,30.08,East,94,2.0,7.0,33,0.00,,,0.00,weatherlink.com 1.10,2013-03-15 23:04:00,
2013-03-15 16:19:00,72.4,42.0,30.08,ENE,63,3.0,4.0,34,0.00,,,0.00,weatherlink.com 1.10,2013-03-15 23:19:00,
2013-03-15 16:34:00,71.5,42.0,30.08,ENE,65,1.0,5.0,35,0.00,,,0.00,weatherlink.com 1.10,2013-03-15 23:34:00,
2013-03-15 16:49:00,70.7,43.0,30.07,West,274,1.0,5.0,37,0.00,,,0.00,weatherlink.com 1.10,2013-03-15 23:49:00,
2013-03-15 17:04:00,69.7,42.0,30.07,SE,144,0.0,3.0,37,0.00,,,0.00,weatherlink.com 1.10,2013-03-16 00:04:00,
2013-03-15 17:19:00,69.1,43.0,30.08,NW,304,1.0,3.0,39,0.00,,,0.00,weatherlink.com 1.10,2013-03-16 00:19:00,
2013-03-15 17:49:00,67.6,44.0,30.07,South,172,0.0,5.0,42,0.00,,,0.00,weatherlink.com 1.10,2013-03-16 00:49:00,
2013-03-15 18:04:00,66.7,43.0,30.06,NNE,14,1.0,3.0,43,0.00,,,0.00,weatherlink.com 1.10,2013-03-16 01:04:00,
2013-03-15 18:19:00,65.6,44.0,30.06,SSE,158,0.0,6.0,46,0.00,,,0.00,weatherlink.com 1.10,2013-03-16 01:19:00,
2013-03-15 18:34:00,64.6,43.0,30.06,East,83,0.0,8.0,46,0.00,,,0.00,weatherlink.com 1.10,2013-03-16 01:34:00,
2013-03-15 18:49:00,63.4,43.0,30.06,ESE,123,0.0,6.0,48,0.00,,,0.00,weatherlink.com 1.10,2013-03-16 01:49:00,
2013-03-15 19:04:00,62.2,43.0,30.07,South,176,0.0,8.0,50,0.00,,,0.00,weatherlink.com 1.10,2013-03-16 02:04:00,
2013-03-15 19:19:00,61.3,44.0,30.07,South,179,3.0,4.0,53,0.00,,,0.00,weatherlink.com 1.10,2013-03-16 02:19:00,
2013-03-15 19:34:00,60.8,44.0,30.07,SW,227,2.0,8.0,54,0.00,,,0.00,weatherlink.com 1.10,2013-03-16 02:34:00,
2013-03-15 19:49:00,60.5,44.0,30.06,SSW,195,1.0,6.0,55,0.00,,,0.00,weatherlink.com 1.10,2013-03-16 02:49:00,
2013-03-15 20:04:00,60.0,44.0,30.07,ESE,114,0.0,4.0,56,0.00,,,0.00,weatherlink.com 1.10,2013-03-16 03:04:00,
2013-03-15 20:19:00,59.5,44.0,30.06,South,170,0.0,3.0,57,0.00,,,0.00,weatherlink.com 1.10,2013-03-16 03:19:00,
2013-03-15 20:34:00,59.0,44.0,30.06,ESE,111,2.0,3.0,57,0.00,,,0.00,weatherlink.com 1.10,2013-03-16 03:34:00,
2013-03-15 20:49:00,58.3,43.0,30.07,SE,141,2.0,2.0,58,0.00,,,0.00,weatherlink.com 1.10,2013-03-16 03:49:00,
2013-03-15 21:04:00,58.1,44.0,30.07,SSE,158,2.0,3.0,59,0.00,,,0.00,weatherlink.com 1.10,2013-03-16 04:04:00,
2013-03-15 21:19:00,57.5,44.0,30.07,SSE,167,1.0,5.0,60,0.00,,,0.00,weatherlink.com 1.10,2013-03-16 04:19:00,
2013-03-15 21:34:00,56.8,44.0,30.08,South,174,0.0,2.0,62,0.00,,,0.00,weatherlink.com 1.10,2013-03-16 04:34:00,
2013-03-15 21:49:00,56.2,44.0,30.08,West,280,0.0,2.0,63,0.00,,,0.00,weatherlink.com 1.10,2013-03-16 04:49:00,
2013-03-15 22:04:00,55.8,44.0,30.09,SE,141,2.0,4.0,64,0.00,,,0.00,weatherlink.com 1.10,2013-03-16 05:04:00,
2013-03-15 22:19:00,55.1,43.0,30.08,SSW,194,2.0,2.0,65,0.00,,,0.00,weatherlink.com 1.10,2013-03-16 05:19:00,
2013-03-15 22:34:00,54.4,43.0,30.08,SSW,211,1.0,3.0,66,0.00,,,0.00,weatherlink.com 1.10,2013-03-16 05:34:00,
2013-03-15 22:49:00,53.7,43.0,30.09,SSE,160,1.0,2.0,68,0.00,,,0.00,weatherlink.com 1.10,2013-03-16 05:49:00,
2013-03-15 23:04:00,53.7,44.0,30.09,SW,217,1.0,4.0,69,0.00,,,0.00,weatherlink.com 1.10,2013-03-16 06:04:00,
2013-03-15 23:19:00,53.7,44.0,30.09,SSW,203,0.0,2.0,70,0.00,,,0.00,weatherlink.com 1.10,2013-03-16 06:19:00,
2013-03-15 23:34:00,52.8,44.0,30.09,SSE,165,1.0,1.0,71,0.00,,,0.00,weatherlink.com 1.10,2013-03-16 06:34:00,
2013-03-15 23:50:00,52.9,44.0,30.09,SSE,166,1.0,2.0,71,0.00,,,0.00,weatherlink.com 1.10,2013-03-16 06:50:00,